Tengchong, China
Current Conditions -  °F | °C
As of 3:00 PM on Thursday 27 Nov 2014 (Local Time) from ZPPP Reporting Station
Clear Clear  
Wind Chill: 63°   Ceiling: Unl
Heat Index: 63°   Visibility: 6mi
Dew Point: 30°   Wind: 22mph
Humidity: 30%   Direction: 240°WSW
Pressure: 30.03"   Gusts: NA
Location:  25.12°N, 98.48°E
Report Text: ZPPP 270700Z 24010MPS CAVOK 17/M01 Q1017 NOSIG
Loading
Personal Weather Stations






























Interactive Weather Map New forecast layout! Learn more

10-Day Weather Forecast

Advertisements
Track Severe Weather on mobile